Flight Track Log - Related Links

Times and Time Zones

All times are in EDT time to prevent confusion due to time zone crossing. See the SWA1718 flight status page for this flight to view local times or setup timezone preferences in your user account.

Time Position Orientation Groundspeed Altitude Reporting Facility
EDT Latitude Longitude Course Direction KTS MPH feet Rate Location/Type
Wed 05:02:59 PM 35.3467 -101.8289 340° North 268 308 11,100  Level Albuquerque Center
Wed 05:04:01 PM 35.4308 -101.8653 341° North 306 352 13,300 2,371 Climbing Albuquerque Center
Wed 05:05:03 PM 35.5231 -101.9047 341° North 342 394 16,000 2,952 Climbing Albuquerque Center
Wed 05:06:00 PM 35.7678 -102.0356 334° Northwest  Level Estimated
Wed 05:06:05 PM 35.6347 -101.9514 341° North 352 405 19,400  Level Albuquerque Center
Wed 05:07:00 PM 35.8603 -102.0917 334° Northwest  Level Estimated
Wed 05:07:07 PM 35.7297 -101.9919 341° North 357 411 21,300  Level Albuquerque Center
Wed 05:08:09 PM 35.8300 -102.0358 340° North 375 432 23,600 2,032 Climbing Albuquerque Center
Wed 05:09:11 PM 35.9297 -102.0783 341° North 379 436 25,500 1,742 Climbing Albuquerque Center
Wed 05:10:13 PM 36.0322 -102.1233 340° North 386 444 27,200 1,548 Climbing Albuquerque Center
Wed 05:11:15 PM 36.1372 -102.1675 341° North 395 455 28,700 1,839 Climbing Albuquerque Center
Wed 05:12:17 PM 36.2628 -102.2206 341° North 398 458 31,000 2,016 Climbing Albuquerque Center
Wed 05:13:20 PM 36.3642 -102.2661 340° North 389 448 32,900 1,536 Climbing Albuquerque Center
Wed 05:14:22 PM 36.4628 -102.3097 340° North 380 437 34,200 1,113 Climbing Albuquerque Center
Wed 05:15:24 PM 36.5594 -102.3508 341° North 370 426 35,200 919 Climbing Albuquerque Center
Wed 05:16:26 PM 36.6583 -102.3956 340° North 375 432 36,100 435 Climbing Albuquerque Center
Wed 05:17:28 PM 36.7583 -102.4397 341° North 381 438 36,100  Level Albuquerque Center
Wed 05:18:30 PM 36.8803 -102.4936 341° North 385 443 36,100  Level Albuquerque Center
Wed 05:19:32 PM 36.9808 -102.5383 340° North 380 437 36,100  Level Albuquerque Center
Wed 05:20:34 PM 37.0747 -102.5803 340° North 375 432 36,100  Level Albuquerque Center
Wed 05:21:36 PM 37.1872 -102.6303 341° North 380 437 36,100  Level Albuquerque Center
Wed 05:22:38 PM 37.2850 -102.6744 340° North 386 444 36,100  Level Albuquerque Center
Wed 05:23:40 PM 37.3983 -102.7258 340° North 387 445 36,100  Level Albuquerque Center
Wed 05:24:46 PM 37.4969 -102.7689 341° North 386 444 36,100  Level Denver Center
Wed 05:25:47 PM 37.6125 -102.8092 345° North 384 442 36,100  Level Denver Center
Wed 05:26:49 PM 37.7106 -102.8394 346° North 379 436 36,100  Level Denver Center
Wed 05:27:51 PM 37.8253 -102.8758 346° North 379 436 36,100  Level Denver Center
Wed 05:28:53 PM 37.9236 -102.9067 346° North 379 436 36,100  Level Denver Center
Wed 05:29:55 PM 38.0372 -102.9417 346° North 376 433 36,100  Level Denver Center
Wed 05:30:57 PM 38.1344 -102.9722 346° North 374 430 36,100  Level Denver Center
Wed 05:31:59 PM 38.2467 -103.0083 346° North 373 429 36,100  Level Denver Center
Wed 05:33:01 PM 38.3425 -103.0386 346° North 372 428 36,100  Level Denver Center
Wed 05:34:03 PM 38.4528 -103.0756 345° North 368 423 36,100  Level Denver Center
Wed 05:35:05 PM 38.5481 -103.1094 344° North 371 427 36,100 -48 Level Denver Center
Wed 05:36:07 PM 38.6133 -103.2053 311° West 328 377 36,000 -581 Descending Denver Center
Wed 05:37:09 PM 38.6742 -103.2892 313° West 320 368 34,900 -919 Descending Denver Center
Wed 05:38:11 PM 38.7356 -103.3739 313° West 321 369 34,100 -387 Descending Denver Center
Wed 05:39:13 PM 38.7958 -103.4606 312° West 323 372 34,100 -97 Level Denver Center
Wed 05:40:15 PM 38.8583 -103.5486 312° West 328 377 33,900 -1,790 Descending Denver Center
Wed 05:41:17 PM 38.9219 -103.6397 312° West 337 388 30,400 -2,806 Descending Denver Center
Wed 05:42:19 PM 38.9844 -103.7272 313° West 332 382 28,100 -2,371 Descending Denver Center
Wed 05:43:21 PM 39.0522 -103.8244 312° West 315 362 25,500 -2,419 Descending Denver Center
Wed 05:44:23 PM 39.1147 -103.9158 311° West 330 380 23,100 -2,371 Descending Denver Center
Wed 05:45:25 PM 39.1811 -104.0094 312° West 343 395 20,600 -2,274 Descending Denver Center
Wed 05:46:27 PM 39.2478 -104.1056 312° West 343 395 18,400 -2,081 Descending Denver Center
Wed 05:47:29 PM 39.2956 -104.1981 304° West 311 358 16,300 -2,129 Descending Denver Center
Wed 05:48:31 PM 39.3425 -104.2892 304° West 307 353 14,000 -2,177 Descending Denver Center
Wed 05:49:33 PM 39.4022 -104.3808 310° West 307 353 11,800 -1,548 Descending Denver Center
Wed 05:50:35 PM 39.4567 -104.4636 310° West 302 348 10,800 -871 Descending Denver Center
Wed 05:51:37 PM 39.5203 -104.5478 314° West 306 352 10,000 -528 Descending Denver Center
Wed 05:52:40 PM 39.5889 -104.5958 332° Northwest 282 325 9,700 -672 Descending Denver Center
Wed 05:53:42 PM 39.6575 -104.6447 331° Northwest 264 304 8,600 -968 Descending Denver Center
Wed 05:54:44 PM 39.7161 -104.6658 345° North 224 258 7,700 -1,016 Descending Denver Center
Wed 05:55:46 PM 39.7739 -104.6608 North 189 217 6,500 -968 Descending Denver Center
Wed 05:56:48 PM 39.8161 -104.6606 360° North 160 184 5,700 -774 Descending Denver Center
Wed 05:58:00 PM 39.8500 -104.6667 North  Level FlightAware Approximate
Wed 06:05:00 PM 39.8617 -104.6732 North  Level Estimated
Wed 06:06:00 PM 39.8617 -104.6732 North  Level Estimated
Wed 06:07:00 PM 39.8617 -104.6732 North  Level Estimated
Wed 06:08:00 PM 39.8617 -104.6732 North  Level Estimated

Login

Don't have an account? Register now (free) for customized features, flight alerts, and more!